createdAt,value
2018-11-29T00:00:12.337Z,4.17
2018-11-29T00:06:07.339Z,2.37
2018-11-29T00:12:02.306Z,5.08
2018-11-29T00:17:57.323Z,3.65
2018-11-29T00:23:52.317Z,3.34
2018-11-29T00:29:47.372Z,2.74
2018-11-29T00:35:42.328Z,4.48
2018-11-29T00:41:37.328Z,3.06
2018-11-29T00:47:32.343Z,3.45
2018-11-29T00:53:27.322Z,3.18
2018-11-29T00:59:22.365Z,3.54
2018-11-29T01:05:17.336Z,3.93
2018-11-29T01:11:12.334Z,3.07
2018-11-29T01:17:07.339Z,3.68
2018-11-29T01:23:02.340Z,2.84
2018-11-29T01:28:57.415Z,3.63
2018-11-29T01:34:52.351Z,3.22
2018-11-29T01:40:47.382Z,4.06
2018-11-29T01:46:42.370Z,4.71
2018-11-29T01:52:37.379Z,3.6
2018-11-29T01:58:32.410Z,3.5
2018-11-29T02:04:27.409Z,3.06
2018-11-29T02:10:22.379Z,3.07
2018-11-29T02:16:17.408Z,3.12
2018-11-29T02:22:12.431Z,2.83
2018-11-29T02:28:07.379Z,3.31
2018-11-29T02:34:02.364Z,3.24
2018-11-29T02:39:57.378Z,3.78
2018-11-29T02:45:52.404Z,3.57
2018-11-29T02:51:47.435Z,3.26
2018-11-29T02:57:42.395Z,3.25
2018-11-29T03:03:37.392Z,3.01
2018-11-29T03:09:32.397Z,2.88
2018-11-29T03:15:27.421Z,3.23
2018-11-29T03:21:22.408Z,4.56
2018-11-29T03:27:17.407Z,3.9
2018-11-29T03:33:12.461Z,3.57
2018-11-29T03:39:07.430Z,4.67
2018-11-29T03:45:02.454Z,4.21
2018-11-29T03:50:57.418Z,3.95
2018-11-29T03:56:52.436Z,3.67
2018-11-29T04:02:47.448Z,3.44
2018-11-29T04:08:42.434Z,4.21
2018-11-29T04:14:37.448Z,3.75
2018-11-29T04:20:32.450Z,3.32
2018-11-29T04:26:27.514Z,3.85
2018-11-29T04:32:22.443Z,3.25
2018-11-29T04:38:17.456Z,3.09
2018-11-29T04:44:12.462Z,7.03
2018-11-29T04:50:07.471Z,4.21
2018-11-29T04:56:02.457Z,3.79
2018-11-29T05:01:57.457Z,4.95
2018-11-29T05:07:52.478Z,3.69
2018-11-29T05:13:47.450Z,3.44
2018-11-29T05:19:42.471Z,3.95
2018-11-29T05:25:37.481Z,4.44
2018-11-29T05:31:32.555Z,3.67
2018-11-29T05:37:27.553Z,4.73
2018-11-29T05:43:22.487Z,4.93
2018-11-29T05:49:17.468Z,3.88
2018-11-29T05:55:12.495Z,3.89
2018-11-29T06:01:07.479Z,3.74
2018-11-29T06:07:02.503Z,5.36
2018-11-29T06:12:57.523Z,3.97
2018-11-29T06:18:52.509Z,12.89
2018-11-29T06:24:47.519Z,5.88
2018-11-29T06:30:42.560Z,7.31
2018-11-29T06:36:37.533Z,21.31
2018-11-29T06:42:32.513Z,7.19
2018-11-29T06:48:27.533Z,5.93
2018-11-29T06:54:22.516Z,5.4
2018-11-29T07:00:17.510Z,5.01
2018-11-29T07:06:12.505Z,10.15
2018-11-29T07:12:07.497Z,6.76
2018-11-29T07:18:02.516Z,6.56
2018-11-29T07:23:57.531Z,19.27
2018-11-29T07:29:52.519Z,5.18
2018-11-29T07:35:47.519Z,7.33
2018-11-29T07:41:42.522Z,8.09
2018-11-29T07:47:37.532Z,13.82
2018-11-29T07:53:32.518Z,11.53
2018-11-29T07:59:27.532Z,12.42
2018-11-29T08:05:22.528Z,33.47
2018-11-29T08:11:17.552Z,36.75
2018-11-29T08:17:12.544Z,38.12
2018-11-29T08:23:07.534Z,48.28
2018-11-29T08:29:02.542Z,34.59
2018-11-29T08:34:57.539Z,23.09
2018-11-29T08:40:52.545Z,14.76
2018-11-29T08:46:47.605Z,11.48
2018-11-29T08:52:42.568Z,10.05
2018-11-29T08:58:37.569Z,11.51
2018-11-29T09:04:32.572Z,13.14
2018-11-29T09:10:31.500Z,12.1
2018-11-29T09:16:22.586Z,11.09
2018-11-29T09:22:17.958Z,8.87
2018-11-29T09:28:12.596Z,9.86
2018-11-29T09:34:07.616Z,11.45
2018-11-29T09:40:02.571Z,8.42
2018-11-29T09:45:57.601Z,10.88
2018-11-29T09:51:52.656Z,11.29
2018-11-29T09:57:47.594Z,9.99
2018-11-29T10:03:42.583Z,8.93
2018-11-29T10:09:37.619Z,6.49
2018-11-29T10:15:32.606Z,7.37
2018-11-29T10:21:27.604Z,5.72
2018-11-29T10:27:22.615Z,5.71
2018-11-29T10:33:17.606Z,7.79
2018-11-29T10:39:12.629Z,4.63
2018-11-29T10:45:07.626Z,6.61
2018-11-29T10:51:02.611Z,7.76
2018-11-29T10:56:57.617Z,8.65
2018-11-29T11:02:52.626Z,8.72
2018-11-29T11:08:47.632Z,5.78
2018-11-29T11:14:42.639Z,7.96
2018-11-29T11:20:37.652Z,6.37
2018-11-29T11:26:32.673Z,11.56
2018-11-29T11:32:27.704Z,9.82
2018-11-29T11:38:22.663Z,12.11
2018-11-29T11:44:17.664Z,11.82
2018-11-29T11:50:12.657Z,17.89
2018-11-29T11:56:07.693Z,14.23
2018-11-29T12:02:02.669Z,15.03
2018-11-29T12:07:57.693Z,16.54
2018-11-29T12:13:52.779Z,17.82
2018-11-29T12:19:47.683Z,12.53
2018-11-29T12:25:42.699Z,10.39
2018-11-29T12:31:37.695Z,12.89
2018-11-29T12:37:32.696Z,8.06
2018-11-29T12:43:27.773Z,8.52
2018-11-29T12:49:22.693Z,8.21
2018-11-29T12:55:17.702Z,8.23
2018-11-29T13:01:12.717Z,9.23
2018-11-29T13:07:07.712Z,7.37
2018-11-29T13:13:02.711Z,10.09
2018-11-29T13:18:57.690Z,6.88
2018-11-29T13:24:52.710Z,6.55
2018-11-29T13:30:47.784Z,7.44
2018-11-29T13:36:42.724Z,5.28
2018-11-29T13:42:37.902Z,9.78
2018-11-29T13:48:32.733Z,7.73
2018-11-29T13:54:27.753Z,7.95
2018-11-29T14:00:22.733Z,8.13
2018-11-29T14:06:17.785Z,5.62
2018-11-29T14:12:12.730Z,18.34
2018-11-29T14:18:07.739Z,9.97
2018-11-29T14:24:02.719Z,3.02
2018-11-29T14:29:57.746Z,6.2
2018-11-29T14:35:52.776Z,6.15
2018-11-29T14:41:47.740Z,4.65
2018-11-29T14:47:42.734Z,10.32
2018-11-29T14:53:37.746Z,10.94
2018-11-29T14:59:32.776Z,7.78
2018-11-29T15:05:27.761Z,14.5
2018-11-29T15:11:22.787Z,7.31
2018-11-29T15:17:17.797Z,8.24
2018-11-29T15:23:12.786Z,7.23
2018-11-29T15:29:07.763Z,7.66
2018-11-29T15:35:02.785Z,10.01
2018-11-29T15:40:57.772Z,7.73
2018-11-29T15:46:52.776Z,5.84
2018-11-29T15:52:47.782Z,7.57
2018-11-29T15:58:42.800Z,5.48
2018-11-29T16:04:37.806Z,6.02
2018-11-29T16:10:32.782Z,23.16
2018-11-29T16:16:27.793Z,5.57
2018-11-29T16:22:22.798Z,4.8
2018-11-29T16:28:17.801Z,3.69
2018-11-29T16:34:12.814Z,5.52
2018-11-29T16:40:07.798Z,4.38
2018-11-29T16:46:02.826Z,4.88
2018-11-29T16:51:57.801Z,9.18
2018-11-29T16:57:52.852Z,8.61
2018-11-29T17:03:47.811Z,11.68
2018-11-29T17:09:42.800Z,7.57
2018-11-29T17:15:37.818Z,13.34
2018-11-29T17:21:32.823Z,17.52
2018-11-29T17:27:27.814Z,11.72
2018-11-29T17:33:22.853Z,19.6
2018-11-29T17:39:17.850Z,22.07
2018-11-29T17:45:12.850Z,18.58
2018-11-29T17:51:07.880Z,15.12
2018-11-29T17:57:02.830Z,19.75
2018-11-29T18:02:57.838Z,13.87
2018-11-29T18:08:52.865Z,44.9
2018-11-29T18:14:47.858Z,24.71
2018-11-29T18:20:42.866Z,19.04
2018-11-29T18:26:37.864Z,20.23
2018-11-29T18:32:32.863Z,22.32
2018-11-29T18:38:27.897Z,43.76
2018-11-29T18:44:22.877Z,38.61
2018-11-29T18:50:17.868Z,19.86
2018-11-29T18:56:12.872Z,11.43
2018-11-29T19:02:07.874Z,16.01
2018-11-29T19:08:02.864Z,16.69
2018-11-29T19:13:57.891Z,39.53
2018-11-29T19:19:52.885Z,23.11
2018-11-29T19:25:47.978Z,20.02
2018-11-29T19:31:42.880Z,18.41
2018-11-29T19:37:37.889Z,15.68
2018-11-29T19:43:32.884Z,18.61
2018-11-29T19:49:27.927Z,23.22
2018-11-29T19:55:22.929Z,16.57
2018-11-29T20:01:17.918Z,16.51
2018-11-29T20:07:12.912Z,11.67
2018-11-29T20:13:07.896Z,14
2018-11-29T20:19:02.930Z,10.67
2018-11-29T20:24:57.961Z,11.82
2018-11-29T20:30:52.977Z,12.1
2018-11-29T20:36:47.924Z,9.43
2018-11-29T20:42:42.940Z,8.83
2018-11-29T20:48:37.944Z,13.71
2018-11-29T20:54:32.941Z,12.93
2018-11-29T21:00:27.978Z,10.51
2018-11-29T21:06:22.966Z,11.79
2018-11-29T21:12:17.951Z,15.7
2018-11-29T21:18:13.031Z,27.18
2018-11-29T21:24:08.030Z,19.51
2018-11-29T21:30:02.975Z,12.94
2018-11-29T21:35:58.044Z,17.75
2018-11-29T21:41:53.018Z,20.54
2018-11-29T21:47:47.967Z,19.01
2018-11-29T21:53:42.965Z,14.18
2018-11-29T21:59:37.989Z,12.5
2018-11-29T22:05:32.967Z,11.48
2018-11-29T22:11:27.979Z,12.6
2018-11-29T22:17:23.009Z,11.66
2018-11-29T22:23:17.972Z,10.82
2018-11-29T22:29:13.002Z,13.18
2018-11-29T22:35:07.986Z,9.43
2018-11-29T22:41:02.990Z,12.96
2018-11-29T22:46:57.987Z,13.74
2018-11-29T22:52:53.015Z,8.1
2018-11-29T22:58:47.992Z,7.91
2018-11-29T23:04:46.203Z,11.5
2018-11-29T23:10:39.204Z,13.35
2018-11-29T23:16:33.263Z,14.52
2018-11-29T23:22:28.259Z,12.27
2018-11-29T23:28:23.019Z,14.28
2018-11-29T23:34:18.068Z,11.32
2018-11-29T23:40:13.109Z,8.79
2018-11-29T23:46:08.065Z,14.03
2018-11-29T23:52:03.043Z,15.37
2018-11-29T23:57:58.054Z,16.62
